Sandy Hook, Connecticut
Current Conditions -  °F | °C
As of 12:50 PM on Saturday 22 Nov 2014 (Local Time) from KOXC Reporting Station
Clear Clear  
Wind Chill:   Ceiling: Unl
Heat Index:   Visibility: 10mi
Dew Point: -11°   Wind: 9mph
Humidity: 33%   Direction: 230°SW
Pressure: 30.28"   Gusts: 17mph
Location:  41.42°N, 73.28°W
Report Text: KOXC 221750Z 23008G15KT 10SM CLR 04/M11 A3028
Loading
Personal Weather Stations






























Interactive Weather Map New forecast layout! Learn more

10-Day Weather Forecast

Advertisements
Track Severe Weather on mobile